KHOP/HOP METAR and TAF weather

Enter ICAO airport designator
Station Type Date Time Source
KHOP METAR 2020/02/19 13:56 UTC NOAA

KHOP 191356Z AUTO 02006KT 10SM CLR 00/M01 A3049 RMK AO2 SLP332 T10051006


Station Type Date Time Source
KHOP Decoded METAR 2020/02/19 13:56 UTC NOAA

Fort Campbell U. S. Army Airfield, KY, United States (KHOP) 36-40N 087-30W 174M
Feb 19, 2020 - 08:56 AM EST / 2020.02.19 1356 UTC
Wind: from the NNE (020 degrees) at 7 MPH (6 KT):0
Visibility: 10 mile(s):0
Sky conditions: clear
Temperature: 31.1 F (-0.5 C)
Windchill: 24 F (-4 C):1
Dew Point: 30.9 F (-0.6 C)
Relative Humidity: 99%
Pressure (altimeter): 30.49 in. Hg (1032 hPa)
ob: KHOP 191356Z AUTO 02006KT 10SM CLR 00/M01 A3049 RMK AO2 SLP332 T10051006
cycle: 14

Station Type Date Time Source
KHOP TAF 2020/02/19 08:13 UTC NOAA

TAF KHOP 190800Z 1908/2014 01009KT 9999 FEW110 QNH3035INS
BECMG 1913/1914 03010G15KT 9999 FEW150 QNH3042INS
BECMG 1915/1916 05012G18KT 9999 FEW200 QNH3040INS
BECMG 1922/1923 04006KT 9999 FEW250 QNH3028INS TX09/1921Z TN01/1909Z

Example: see airport list